KLSV/LSV METAR and TAF weather

Enter ICAO airport designator
Station Type Date Time Source
KLSV METAR 2022/01/25 03:56 UTC NOAA

KLSV 250356Z 02006KT 10SM CLR 09/M08 A2996 RMK A02A SLP152 WND DATA ESTMD SLP/ALSTG ESTMD $


Station Type Date Time Source
KLSV Decoded METAR 2022/01/25 03:56 UTC NOAA

Nellis Air Force Base, NV, United States (KLSV) 36-14N 115-02W
Jan 24, 2022 - 10:56 PM EST / 2022.01.25 0356 UTC
Wind: from the NNE (020 degrees) at 7 MPH (6 KT):0
Visibility: 10 mile(s):0
Sky conditions: clear
Temperature: 48 F (9 C)
Dew Point: 17 F (-8 C)
Relative Humidity: 29%
Pressure (altimeter): 29.96 in. Hg (1014 hPa)
ob: KLSV 250356Z 02006KT 10SM CLR 09/M08 A2996 RMK A02A SLP152 WND DATA ESTMD SLP/ALSTG ESTMD
cycle: 4

Station Type Date Time Source
KLSV TAF 2022/01/24 23:03 UTC NOAA

TAF TAF KLSV 242300Z 2423/2605 VRB05KT 9999 SKC QNH2994INS
BECMG 2503/2504 34007KT 9999 FEW250 QNH2992INS
BECMG 2513/2514 31012KT 9999 FEW250 QNH2998INS
BECMG 2516/2517 01015G26KT 9999 FEW200 SCT250 520009 QNH3004INS TX18/2523Z TN04/2515Z

Example: see airport list